Time;durP1;ratioP1;P1;durP2;ratioP2;P2;SDS_P1;SDS_P2;PMS_P1;PMS_P2;Temp;Humidity;BMP_temperature;BMP_pressure;BME280_temperature;BME280_humidity;BME280_pressure;Samples;Min_cycle;Max_cycle;Signal;HPM_P1;HPM_P2
2022/06/21 00:00:18;;;;;;;4.97;1.73;;;12.80;99.90;;;;;;5095863;28;20298;-43
2022/06/21 00:02:45;;;;;;;3.97;2.00;;;12.80;99.90;;;;;;5094699;28;20310;-44
2022/06/21 00:05:27;;;;;;;5.30;2.40;;;12.70;99.90;;;;;;5076650;28;20233;-45
2022/06/21 00:07:53;;;;;;;3.37;1.87;;;12.70;99.90;;;;;;5094991;28;20182;-46
2022/06/21 00:10:19;;;;;;;3.53;2.00;;;12.70;99.90;;;;;;5094603;28;20256;-45
2022/06/21 00:12:46;;;;;;;2.33;1.97;;;12.70;99.90;;;;;;5076519;28;20210;-44
2022/06/21 00:15:12;;;;;;;3.73;2.10;;;12.70;99.90;;;;;;5094577;28;20178;-44
2022/06/21 00:17:41;;;;;;;5.43;2.20;;;12.60;99.90;;;;;;5094783;28;20186;-43
2022/06/21 00:20:10;;;;;;;3.60;1.90;;;12.60;99.90;;;;;;5094482;28;20260;-44
2022/06/21 00:22:36;;;;;;;4.33;2.50;;;12.60;99.90;;;;;;5094586;28;20207;-45
2022/06/21 00:25:05;;;;;;;5.23;2.20;;;12.60;99.90;;;;;;5094485;28;20518;-46
2022/06/21 00:27:30;;;;;;;4.30;2.50;;;12.60;99.90;;;;;;5094812;28;20224;-46
2022/06/21 00:29:56;;;;;;;5.83;2.30;;;12.50;99.90;;;;;;5094298;28;20194;-43
2022/06/21 00:32:21;;;;;;;6.40;2.43;;;12.50;99.90;;;;;;5094254;28;20652;-44
2022/06/21 00:34:47;;;;;;;6.27;2.20;;;12.40;99.90;;;;;;5094443;28;20175;-44
2022/06/21 00:37:23;;;;;;;3.47;2.13;;;12.40;99.90;;;;;;5075963;28;20186;-44
2022/06/21 00:39:49;;;;;;;5.07;2.30;;;12.40;99.90;;;;;;5094096;28;20187;-44
2022/06/21 00:42:31;;;;;;;8.60;2.40;;;12.40;99.90;;;;;;5075848;28;20181;-45
2022/06/21 00:45:11;;;;;;;2.00;1.80;;;12.40;99.90;;;;;;5094734;28;20167;-43
2022/06/21 00:47:44;;;;;;;5.30;2.30;;;12.30;99.90;;;;;;5094311;28;20160;-44
2022/06/21 00:50:27;;;;;;;5.73;2.20;;;12.30;99.90;;;;;;5093957;28;20199;-45
2022/06/21 00:53:30;;;;;;;4.43;2.10;;;12.20;99.90;;;;;;5094268;28;20250;-45
2022/06/21 00:55:58;;;;;;;3.00;1.93;;;12.20;99.90;;;;;;5075663;28;20269;-45
2022/06/21 00:58:26;;;;;;;3.27;1.60;;;12.10;99.90;;;;;;5075388;28;20233;-44
2022/06/21 01:01:01;;;;;;;4.03;2.30;;;12.00;99.90;;;;;;5093945;28;20174;-44
2022/06/21 01:03:38;;;;;;;4.00;1.83;;;12.00;99.90;;;;;;5094292;28;20658;-44
2022/06/21 01:06:08;;;;;;;4.23;2.00;;;12.00;99.90;;;;;;5096975;28;20182;-44
2022/06/21 01:08:37;;;;;;;2.73;1.77;;;12.00;99.90;;;;;;5103078;28;20524;-45
2022/06/21 01:11:10;;;;;;;4.43;2.10;;;11.90;99.90;;;;;;5079291;28;20657;-45
2022/06/21 01:13:40;;;;;;;2.40;1.70;;;11.80;99.90;;;;;;5093880;28;20185;-46
2022/06/21 01:16:06;;;;;;;3.47;1.53;;;11.70;99.90;;;;;;5095013;28;20155;-44
2022/06/21 01:18:33;;;;;;;4.37;1.90;;;11.70;99.90;;;;;;5094404;28;20198;-45
2022/06/21 01:21:02;;;;;;;2.80;1.77;;;11.60;99.90;;;;;;5094564;28;20197;-43
2022/06/21 01:23:57;;;;;;;2.80;2.03;;;11.50;99.90;;;;;;5094004;28;20626;-45
2022/06/21 01:26:41;;;;;;;2.83;2.00;;;11.50;99.90;;;;;;5093402;28;20206;-44
2022/06/21 01:29:12;;;;;;;5.50;2.10;;;11.40;99.90;;;;;;5093571;28;20243;-44
2022/06/21 01:31:38;;;;;;;2.80;1.97;;;11.30;99.90;;;;;;5093831;28;20202;-43
2022/06/21 01:34:14;;;;;;;3.00;1.97;;;11.30;99.90;;;;;;5093395;28;20198;-43
2022/06/21 01:36:40;;;;;;;3.97;2.10;;;11.20;99.90;;;;;;5093584;28;20161;-44
2022/06/21 01:39:08;;;;;;;1.90;1.70;;;11.20;99.90;;;;;;5093717;28;20289;-45
2022/06/21 01:41:44;;;;;;;2.40;1.57;;;11.10;99.90;;;;;;5076720;28;20183;-43
2022/06/21 01:44:21;;;;;;;2.03;1.67;;;11.10;99.90;;;;;;5094845;28;20616;-45
2022/06/21 01:46:47;;;;;;;1.70;1.43;;;10.90;99.90;;;;;;5094666;28;20698;-43
2022/06/21 01:49:18;;;;;;;3.53;1.87;;;10.90;99.90;;;;;;5093138;28;20195;-43
2022/06/21 01:51:48;;;;;;;4.50;2.10;;;10.80;99.90;;;;;;5093936;28;20243;-46
2022/06/21 01:54:17;;;;;;;2.00;1.70;;;10.70;99.90;;;;;;5093165;28;20164;-44
2022/06/21 01:56:45;;;;;;;2.00;1.47;;;10.60;99.90;;;;;;5093369;28;20178;-43
2022/06/21 01:59:25;;;;;;;2.90;1.63;;;10.50;99.90;;;;;;5093198;28;20221;-45
2022/06/21 02:01:58;;;;;;;2.77;1.60;;;10.50;99.90;;;;;;5093544;28;20170;-43
2022/06/21 02:04:32;;;;;;;4.47;2.10;;;10.40;99.90;;;;;;5093729;28;20231;-42
2022/06/21 02:07:03;;;;;;;4.07;2.03;;;10.40;99.90;;;;;;5093795;28;20211;-44
2022/06/21 02:09:42;;;;;;;2.33;1.63;;;10.30;99.90;;;;;;5093793;28;20198;-44
2022/06/21 02:12:12;;;;;;;3.20;2.10;;;10.20;99.90;;;;;;5095017;28;20170;-45
2022/06/21 02:14:45;;;;;;;3.87;1.83;;;10.20;99.90;;;;;;5097361;28;20202;-44
2022/06/21 02:17:30;;;;;;;2.40;1.80;;;10.20;99.90;;;;;;5097206;28;20178;-44
2022/06/21 02:20:20;;;;;;;2.23;2.03;;;10.10;99.90;;;;;;5096720;28;20193;-43
2022/06/21 02:22:46;;;;;;;3.13;1.83;;;10.10;99.90;;;;;;5097114;28;20218;-42
2022/06/21 02:25:21;;;;;;;4.30;2.40;;;10.10;99.90;;;;;;5097113;28;20177;-44
2022/06/21 02:27:50;;;;;;;3.50;2.47;;;10.10;99.90;;;;;;5097382;28;20195;-43
2022/06/21 02:30:22;;;;;;;2.23;2.03;;;10.10;99.90;;;;;;5097343;28;20203;-43
2022/06/21 02:32:49;;;;;;;4.60;2.30;;;10.10;99.90;;;;;;5078838;28;20185;-44
2022/06/21 02:35:34;;;;;;;5.33;2.50;;;10.10;99.90;;;;;;5096856;28;20543;-44
2022/06/21 02:38:03;;;;;;;3.27;2.17;;;10.10;99.90;;;;;;5096520;28;20165;-43
2022/06/21 02:40:34;;;;;;;3.10;2.10;;;10.10;99.90;;;;;;5096471;28;20182;-46
2022/06/21 02:43:08;;;;;;;3.23;1.97;;;10.10;99.90;;;;;;5096579;28;20193;-45
2022/06/21 02:45:44;;;;;;;6.33;2.10;;;10.10;99.90;;;;;;5097100;28;20188;-44
2022/06/21 02:48:15;;;;;;;4.57;1.90;;;10.00;99.90;;;;;;5096651;28;20164;-44
2022/06/21 02:50:46;;;;;;;3.40;2.10;;;10.00;99.90;;;;;;5096271;28;20170;-43
2022/06/21 02:53:36;;;;;;;2.70;2.30;;;10.00;99.90;;;;;;5096630;28;20617;-42
2022/06/21 02:56:20;;;;;;;8.53;3.00;;;9.90;99.90;;;;;;5066635;28;20198;-43
2022/06/21 02:58:50;;;;;;;7.27;2.60;;;9.90;99.90;;;;;;5096131;28;20269;-44
2022/06/21 03:01:27;;;;;;;4.13;2.83;;;9.80;99.90;;;;;;5096250;28;20659;-44
2022/06/21 03:03:53;;;;;;;10.20;3.13;;;9.80;99.90;;;;;;5096118;28;20241;-43
2022/06/21 03:06:21;;;;;;;3.60;2.53;;;9.80;99.90;;;;;;5095989;28;20190;-42
2022/06/21 03:08:52;;;;;;;4.80;2.63;;;9.80;99.90;;;;;;5095929;28;20250;-45
2022/06/21 03:11:20;;;;;;;7.60;2.83;;;9.80;99.90;;;;;;5095757;28;20171;-43
2022/06/21 03:13:46;;;;;;;4.87;3.03;;;9.80;99.90;;;;;;5096038;28;20175;-42
2022/06/21 03:16:16;;;;;;;9.17;2.73;;;9.70;99.90;;;;;;5095870;28;20557;-43
2022/06/21 03:18:54;;;;;;;3.37;2.37;;;9.80;99.90;;;;;;5095914;28;20196;-43
2022/06/21 03:21:32;;;;;;;4.57;2.20;;;9.70;99.90;;;;;;5095782;28;20202;-46
2022/06/21 03:24:01;;;;;;;3.43;2.13;;;9.70;99.90;;;;;;5095460;28;20192;-45
2022/06/21 03:26:28;;;;;;;3.60;2.03;;;9.70;99.90;;;;;;5077517;28;20176;-44
2022/06/21 03:28:55;;;;;;;2.33;1.73;;;9.60;99.90;;;;;;5095614;28;20220;-43
2022/06/21 03:31:30;;;;;;;3.63;2.13;;;9.60;99.90;;;;;;5077574;28;20219;-42
2022/06/21 03:34:03;;;;;;;3.73;1.97;;;9.50;99.90;;;;;;5096137;28;20213;-43
2022/06/21 03:36:29;;;;;;;2.73;1.90;;;9.40;99.90;;;;;;5095499;28;20700;-43
2022/06/21 03:39:03;;;;;;;5.17;2.50;;;9.40;99.90;;;;;;5095273;28;20235;-43
2022/06/21 03:41:44;;;;;;;3.70;2.33;;;9.40;99.90;;;;;;5095360;28;20168;-43
2022/06/21 03:44:14;;;;;;;3.73;2.20;;;9.40;99.90;;;;;;5095094;28;20225;-43
2022/06/21 03:46:47;;;;;;;5.00;2.33;;;9.30;99.90;;;;;;5095239;28;20669;-43
2022/06/21 03:49:35;;;;;;;3.20;2.27;;;9.30;99.90;;;;;;5095160;28;20345;-42
2022/06/21 03:52:06;;;;;;;3.43;2.30;;;9.30;99.90;;;;;;5076908;28;20696;-44
2022/06/21 03:54:46;;;;;;;5.03;2.80;;;9.30;99.90;;;;;;5076862;28;20222;-43
2022/06/21 03:57:24;;;;;;;4.17;2.63;;;9.40;99.90;;;;;;5094890;28;20163;-42
2022/06/21 04:00:01;;;;;;;4.07;3.30;;;9.40;99.90;;;;;;5094761;28;20301;-44
2022/06/21 04:02:33;;;;;;;6.23;2.97;;;9.40;99.90;;;;;;5077138;28;20197;-43
2022/06/21 04:05:24;;;;;;;3.80;2.70;;;9.50;99.90;;;;;;5095096;28;20160;-43
2022/06/21 04:08:00;;;;;;;3.43;2.60;;;9.50;99.90;;;;;;5095645;28;20190;-43
2022/06/21 04:10:43;;;;;;;3.77;2.90;;;9.60;99.90;;;;;;5096058;28;20159;-43
2022/06/21 04:13:25;;;;;;;5.20;2.57;;;9.60;99.90;;;;;;5104481;28;20178;-39
2022/06/21 04:16:15;;;;;;;6.20;2.67;;;9.60;99.90;;;;;;5101096;28;20689;-38
2022/06/21 04:19:09;;;;;;;4.13;2.87;;;9.60;99.90;;;;;;5094978;28;20709;-36
2022/06/21 04:21:57;;;;;;;4.43;2.40;;;9.80;99.90;;;;;;5084859;28;20188;-38
2022/06/21 04:24:32;;;;;;;3.93;2.80;;;9.80;99.90;;;;;;5094626;28;20203;-39
2022/06/21 04:27:09;;;;;;;4.67;2.73;;;9.80;99.90;;;;;;5094626;28;20246;-38
2022/06/21 04:30:00;;;;;;;6.27;2.40;;;9.80;99.90;;;;;;5076118;28;20194;-37
2022/06/21 04:32:42;;;;;;;6.33;2.73;;;9.80;99.90;;;;;;5094269;28;20167;-38
2022/06/21 04:35:22;;;;;;;4.40;3.37;;;9.80;99.90;;;;;;5093980;28;20658;-38
2022/06/21 04:38:00;;;;;;;6.00;3.03;;;9.80;99.90;;;;;;5094142;28;20159;-39
2022/06/21 04:40:42;;;;;;;8.57;3.23;;;9.90;99.90;;;;;;5094454;28;20167;-39
2022/06/21 04:43:26;;;;;;;8.03;3.77;;;9.90;99.90;;;;;;5094257;28;20595;-38
2022/06/21 04:46:00;;;;;;;7.60;3.87;;;10.00;99.90;;;;;;5094586;28;20156;-37
2022/06/21 04:48:37;;;;;;;8.17;4.07;;;10.10;99.90;;;;;;5094145;28;20279;-39
2022/06/21 04:51:27;;;;;;;7.63;3.87;;;10.20;99.90;;;;;;5075910;28;20209;-37
2022/06/21 04:54:10;;;;;;;9.93;4.27;;;10.40;99.90;;;;;;5075917;28;20620;-37
2022/06/21 04:57:00;;;;;;;5.37;4.03;;;10.50;99.90;;;;;;5093904;28;20704;-40
2022/06/21 04:59:30;;;;;;;13.50;5.17;;;10.80;99.90;;;;;;5093534;28;20687;-36
2022/06/21 05:01:57;;;;;;;9.80;5.00;;;10.90;99.90;;;;;;5094012;28;20185;-40
2022/06/21 05:04:27;;;;;;;7.47;4.53;;;11.10;99.90;;;;;;5093932;28;20562;-39
2022/06/21 05:06:56;;;;;;;7.93;4.60;;;11.30;99.90;;;;;;5094275;28;20258;-36
2022/06/21 05:09:26;;;;;;;11.87;5.20;;;11.40;99.90;;;;;;5094237;28;20226;-37
2022/06/21 05:11:59;;;;;;;10.50;4.97;;;11.50;99.90;;;;;;5093951;28;20263;-40
2022/06/21 05:14:29;;;;;;;15.37;5.57;;;11.60;99.90;;;;;;5093895;28;20171;-37
2022/06/21 05:16:55;;;;;;;15.53;5.27;;;11.70;99.90;;;;;;5094039;28;20239;-39
2022/06/21 05:19:35;;;;;;;17.00;5.67;;;11.80;99.90;;;;;;5075571;28;20234;-37
2022/06/21 05:22:14;;;;;;;13.47;5.97;;;11.90;99.90;;;;;;5094483;28;20208;-38
2022/06/21 05:24:40;;;;;;;14.03;5.43;;;11.90;99.90;;;;;;5094199;28;20201;-39
2022/06/21 05:27:18;;;;;;;16.07;5.63;;;12.00;99.90;;;;;;5076071;28;20179;-39
2022/06/21 05:29:52;;;;;;;20.57;6.03;;;12.10;99.90;;;;;;5059950;28;20574;-39
2022/06/21 05:32:21;;;;;;;21.00;5.60;;;12.20;99.90;;;;;;5094073;28;20706;-38
2022/06/21 05:34:54;;;;;;;7.33;5.37;;;12.30;99.90;;;;;;5093681;28;20171;-40
2022/06/21 05:37:28;;;;;;;9.33;5.27;;;12.30;99.90;;;;;;5093702;28;20615;-38
2022/06/21 05:39:56;;;;;;;17.13;6.43;;;12.40;99.90;;;;;;5093908;28;20282;-39
2022/06/21 05:42:25;;;;;;;10.87;6.33;;;12.50;99.90;;;;;;5093770;28;20179;-37
2022/06/21 05:44:54;;;;;;;11.03;6.33;;;12.60;99.90;;;;;;5094120;28;20177;-36
2022/06/21 05:47:28;;;;;;;11.63;6.00;;;12.60;99.90;;;;;;5097928;28;20195;-37
2022/06/21 05:49:57;;;;;;;14.43;6.20;;;12.70;99.90;;;;;;5097767;28;20210;-37
2022/06/21 05:52:32;;;;;;;13.43;6.13;;;12.80;99.90;;;;;;5097797;28;20179;-38
2022/06/21 05:55:20;;;;;;;10.77;5.93;;;13.00;99.90;;;;;;5097964;28;20171;-38
2022/06/21 05:57:56;;;;;;;10.47;5.90;;;13.00;99.90;;;;;;5096722;28;20276;-37
2022/06/21 06:00:57;;;;;;;13.00;5.90;;;13.20;99.90;;;;;;5097877;28;20167;-37
2022/06/21 06:03:41;;;;;;;15.37;6.50;;;13.30;99.90;;;;;;5097255;28;20231;-37
2022/06/21 06:06:15;;;;;;;7.10;5.10;;;13.50;99.90;;;;;;5097511;28;20176;-37
2022/06/21 06:08:46;;;;;;;8.23;5.80;;;13.70;99.90;;;;;;5097346;28;20252;-37
2022/06/21 06:11:22;;;;;;;10.67;5.97;;;13.90;99.90;;;;;;5097224;28;20314;-36
2022/06/21 06:13:50;;;;;;;14.87;5.80;;;14.10;99.90;;;;;;5096983;28;20191;-38
2022/06/21 06:16:24;;;;;;;10.77;4.87;;;14.20;99.90;;;;;;5097445;28;20643;-38
2022/06/21 06:19:01;;;;;;;13.47;4.63;;;14.50;99.90;;;;;;5096942;28;20677;-38
2022/06/21 06:22:05;;;;;;;8.83;4.03;;;14.60;99.90;;;;;;5097455;28;20177;-38
2022/06/21 06:25:05;;;;;;;6.53;4.27;;;14.90;99.90;;;;;;5083545;28;20289;-37
2022/06/21 06:27:45;;;;;;;10.23;4.03;;;15.10;99.90;;;;;;5041451;28;20206;-39
2022/06/21 06:30:15;;;;;;;8.33;3.80;;;15.50;99.90;;;;;;5096825;28;20202;-37
2022/06/21 06:32:50;;;;;;;15.20;4.10;;;15.80;99.90;;;;;;5097032;28;20167;-37
2022/06/21 06:35:20;;;;;;;11.80;4.13;;;15.90;99.90;;;;;;5096748;28;20167;-37
2022/06/21 06:37:46;;;;;;;5.30;3.80;;;15.90;99.90;;;;;;5078349;28;20657;-36
2022/06/21 06:40:37;;;;;;;7.90;4.30;;;16.20;99.90;;;;;;5078206;28;20202;-38
2022/06/21 06:43:27;;;;;;;12.37;3.87;;;16.30;99.90;;;;;;5084267;28;20219;-39
2022/06/21 06:45:57;;;;;;;8.97;3.97;;;16.60;99.90;;;;;;5096641;28;20191;-39
2022/06/21 06:48:29;;;;;;;5.93;3.97;;;16.80;99.90;;;;;;5096527;28;20195;-40
2022/06/21 06:51:15;;;;;;;4.70;3.53;;;17.10;99.90;;;;;;5096695;28;20163;-37
2022/06/21 06:53:46;;;;;;;7.63;4.00;;;17.20;99.90;;;;;;5079555;28;20205;-38
2022/06/21 06:56:19;;;;;;;6.27;3.73;;;17.40;99.90;;;;;;5096215;28;20569;-36
2022/06/21 06:58:53;;;;;;;6.03;3.43;;;17.50;99.90;;;;;;5095422;28;20218;-38
2022/06/21 07:01:24;;;;;;;6.40;3.20;;;17.60;99.90;;;;;;5096403;28;20173;-39
2022/06/21 07:03:59;;;;;;;3.83;3.20;;;17.70;99.90;;;;;;5096272;28;20228;-38
2022/06/21 07:06:31;;;;;;;10.50;3.80;;;17.90;99.90;;;;;;5096417;28;20259;-40
2022/06/21 07:09:11;;;;;;;5.40;3.30;;;18.00;99.90;;;;;;5096122;28;20202;-38
2022/06/21 07:11:42;;;;;;;5.67;2.90;;;18.10;99.90;;;;;;5096073;28;20541;-36
2022/06/21 07:14:15;;;;;;;5.80;3.37;;;18.40;99.90;;;;;;5095752;28;20190;-39
2022/06/21 07:16:42;;;;;;;7.03;2.90;;;18.60;99.90;;;;;;5095726;28;20175;-39
2022/06/21 07:19:10;;;;;;;6.80;2.90;;;19.00;99.90;;;;;;5095665;28;20203;-38
2022/06/21 07:21:37;;;;;;;6.07;3.50;;;19.20;99.90;;;;;;5095851;28;20546;-38
2022/06/21 07:24:05;;;;;;;6.50;2.60;;;19.20;99.90;;;;;;5095846;28;20238;-40
2022/06/21 07:26:34;;;;;;;8.40;2.87;;;19.20;99.90;;;;;;5108365;28;20196;-39
2022/06/21 07:29:17;;;;;;;7.50;2.70;;;19.30;99.90;;;;;;5108717;28;20199;-39
2022/06/21 07:31:48;;;;;;;6.93;2.70;;;19.10;99.90;;;;;;5078779;28;20259;-38
2022/06/21 07:34:27;;;;;;;5.20;2.53;;;19.00;99.90;;;;;;5096114;28;20179;-39
2022/06/21 07:36:58;;;;;;;3.53;2.40;;;19.00;99.90;;;;;;5095868;28;20232;-39
2022/06/21 07:39:31;;;;;;;4.27;2.50;;;19.20;99.90;;;;;;5095547;28;20202;-40
2022/06/21 07:42:11;;;;;;;8.67;3.30;;;19.50;99.90;;;;;;5095917;28;20171;-40
2022/06/21 07:45:01;;;;;;;3.53;2.23;;;19.60;99.90;;;;;;5077047;28;20182;-40
2022/06/21 07:47:42;;;;;;;3.90;2.27;;;19.70;99.90;;;;;;5095520;28;20171;-38
2022/06/21 07:50:39;;;;;;;3.93;2.27;;;19.70;99.90;;;;;;5095243;28;20194;-40
2022/06/21 07:53:13;;;;;;;6.07;2.40;;;19.70;99.90;;;;;;5095559;28;20200;-40
2022/06/21 07:55:43;;;;;;;6.07;3.13;;;19.80;99.90;;;;;;5095683;28;20221;-40
2022/06/21 07:58:17;;;;;;;5.13;3.10;;;19.80;99.90;;;;;;5095295;28;20266;-39
2022/06/21 08:06:42;;;;;;;4.97;2.10;;;20.00;99.90;;;;;;5095433;28;20556;-39
2022/06/21 08:09:37;;;;;;;4.03;2.50;;;20.30;99.90;;;;;;5093702;28;20651;-39
2022/06/21 08:12:03;;;;;;;6.20;2.40;;;20.70;99.90;;;;;;5094851;28;20526;-39
2022/06/21 08:14:31;;;;;;;3.37;2.30;;;21.00;99.90;;;;;;5094759;28;20181;-39
2022/06/21 08:17:08;;;;;;;6.97;2.90;;;21.20;99.90;;;;;;5094748;28;20194;-40
2022/06/21 08:19:43;;;;;;;5.80;2.27;;;21.40;99.90;;;;;;5094992;28;20198;-39
2022/06/21 08:22:38;;;;;;;4.63;2.20;;;21.40;99.90;;;;;;5094716;28;20186;-41
2022/06/21 08:25:23;;;;;;;5.53;2.10;;;21.50;99.90;;;;;;5055533;28;20198;-39
2022/06/21 08:28:01;;;;;;;3.63;2.00;;;21.40;99.90;;;;;;5076350;28;20222;-39
2022/06/21 08:30:35;;;;;;;3.60;2.50;;;21.30;99.90;;;;;;5094655;28;20170;-40
2022/06/21 08:33:13;;;;;;;2.97;2.60;;;21.00;99.90;;;;;;5094507;28;20255;-41
2022/06/21 08:35:44;;;;;;;7.37;2.97;;;20.80;99.90;;;;;;5094626;28;20163;-41
2022/06/21 08:38:30;;;;;;;2.77;2.17;;;20.80;99.90;;;;;;5094205;28;20174;-41
2022/06/21 08:44:30;;;;;;;3.67;2.40;;;20.90;99.90;;;;;;5094528;28;20375;-41
2022/06/21 08:47:15;;;;;;;6.40;2.53;;;21.10;99.90;;;;;;5076066;28;20185;-39
2022/06/21 08:49:57;;;;;;;3.73;2.37;;;21.20;99.90;;;;;;5094064;28;20186;-40
2022/06/21 08:52:47;;;;;;;7.30;3.00;;;21.30;99.90;;;;;;5094227;28;20168;-41
2022/06/21 08:55:26;;;;;;;5.10;2.80;;;21.20;99.90;;;;;;5094344;28;20241;-41
2022/06/21 08:58:23;;;;;;;6.20;2.47;;;21.20;99.90;;;;;;5093979;28;20166;-39
2022/06/21 09:00:52;;;;;;;6.83;3.30;;;21.40;99.90;;;;;;5094091;28;20249;-39
2022/06/21 09:03:30;;;;;;;7.03;2.53;;;21.60;99.90;;;;;;5093868;28;20217;-41
2022/06/21 09:06:01;;;;;;;6.33;2.37;;;21.50;99.90;;;;;;5094600;28;20178;-40
2022/06/21 09:09:07;;;;;;;5.70;2.67;;;21.30;99.90;;;;;;5094110;28;20196;-39
2022/06/21 09:11:49;;;;;;;4.87;2.20;;;21.30;99.90;;;;;;4992325;28;20642;-40
2022/06/21 09:14:32;;;;;;;6.00;2.40;;;21.10;99.90;;;;;;4992165;28;20174;-40
2022/06/21 09:17:15;;;;;;;5.33;2.43;;;21.10;99.90;;;;;;5064952;28;20225;-41
2022/06/21 09:19:49;;;;;;;6.20;2.73;;;21.00;99.90;;;;;;5093746;28;20200;-40
2022/06/21 09:22:54;;;;;;;4.60;2.27;;;20.90;99.90;;;;;;5093538;28;20553;-41
2022/06/21 09:25:38;;;;;;;5.97;2.40;;;20.90;99.90;;;;;;5056153;28;20661;-40
2022/06/21 09:28:13;;;;;;;4.20;2.20;;;20.90;99.90;;;;;;5093787;28;20259;-40
2022/06/21 09:30:50;;;;;;;5.43;2.40;;;20.90;99.90;;;;;;5093900;28;20170;-40
2022/06/21 09:33:19;;;;;;;9.60;2.60;;;21.00;99.90;;;;;;5093676;28;20197;-41
2022/06/21 09:36:03;;;;;;;6.73;2.30;;;21.20;99.90;;;;;;5093665;28;20199;-40
2022/06/21 09:38:50;;;;;;;5.23;2.87;;;21.20;99.90;;;;;;5093732;28;20186;-40
2022/06/21 09:41:35;;;;;;;6.40;2.70;;;21.20;99.90;;;;;;5093660;28;20631;-40
2022/06/21 09:44:25;;;;;;;3.13;2.40;;;21.40;99.90;;;;;;5093412;28;20268;-39
2022/06/21 09:46:54;;;;;;;5.37;2.23;;;21.60;99.90;;;;;;5093535;28;20175;-40
2022/06/21 09:49:37;;;;;;;3.23;2.03;;;21.90;99.90;;;;;;5093582;28;20244;-39
2022/06/21 09:52:50;;;;;;;2.73;1.83;;;22.20;99.90;;;;;;5093315;28;20202;-39
2022/06/21 09:55:38;;;;;;;3.43;2.50;;;22.40;99.90;;;;;;5048587;28;20549;-40
2022/06/21 09:58:18;;;;;;;3.63;2.03;;;22.60;99.90;;;;;;5093343;28;20242;-39
2022/06/21 10:00:54;;;;;;;6.13;2.10;;;22.70;99.90;;;;;;5093108;28;20670;-40
2022/06/21 10:03:53;;;;;;;2.97;2.30;;;22.70;99.90;;;;;;5093562;28;20560;-38
2022/06/21 10:06:42;;;;;;;5.27;2.33;;;22.60;99.90;;;;;;5054334;28;20183;-38
2022/06/21 10:09:33;;;;;;;5.50;2.20;;;22.60;99.90;;;;;;5075110;28;20194;-39
2022/06/21 10:12:34;;;;;;;4.80;2.07;;;22.60;99.90;;;;;;5093744;28;20208;-40
2022/06/21 10:15:37;;;;;;;4.33;2.30;;;22.70;99.90;;;;;;5093440;28;20159;-40
2022/06/21 10:18:36;;;;;;;3.93;2.10;;;22.90;99.90;;;;;;5093036;28;20171;-41
2022/06/21 10:21:16;;;;;;;5.13;2.13;;;23.10;99.90;;;;;;5093521;28;20249;-41
2022/06/21 10:23:44;;;;;;;4.03;2.50;;;23.10;99.90;;;;;;5093251;28;20198;-37
2022/06/21 10:26:42;;;;;;;4.67;2.20;;;23.20;99.90;;;;;;5092926;28;20194;-40
2022/06/21 10:29:35;;;;;;;3.57;2.20;;;23.20;99.90;;;;;;5037542;28;20232;-41
2022/06/21 10:32:31;;;;;;;3.53;1.80;;;23.30;99.90;;;;;;5093191;28;20175;-40
2022/06/21 10:35:47;;;;;;;4.03;2.40;;;23.30;99.90;;;;;;5096465;28;20178;-41
2022/06/21 10:38:32;;;;;;;6.70;2.87;;;23.40;99.90;;;;;;5071726;28;20187;-43
2022/06/21 10:41:38;;;;;;;4.83;2.83;;;23.30;99.90;;;;;;5096699;28;20202;-41
2022/06/21 10:44:32;;;;;;;4.70;2.50;;;23.10;99.90;;;;;;5096394;28;20194;-42
2022/06/21 10:47:03;;;;;;;5.07;2.80;;;23.10;99.90;;;;;;5097111;28;20167;-42
2022/06/21 10:49:49;;;;;;;4.87;2.10;;;23.10;99.90;;;;;;5096670;28;20191;-42
2022/06/21 10:52:49;;;;;;;4.17;2.60;;;23.30;99.90;;;;;;5078454;28;20220;-42
2022/06/21 10:55:37;;;;;;;3.80;2.40;;;23.40;99.90;;;;;;5077950;28;20198;-42
2022/06/21 10:58:23;;;;;;;3.07;2.47;;;23.50;99.90;;;;;;5096176;28;20630;-40
2022/06/21 11:01:17;;;;;;;5.07;2.87;;;23.40;99.90;;;;;;5096412;28;20175;-41
2022/06/21 11:04:04;;;;;;;4.00;2.50;;;23.50;99.90;;;;;;5096097;28;20666;-44
2022/06/21 11:06:40;;;;;;;7.17;2.60;;;23.50;99.90;;;;;;5096050;28;20575;-42
2022/06/21 11:09:13;;;;;;;5.93;2.93;;;23.60;99.90;;;;;;5096151;28;20265;-43
2022/06/21 11:11:51;;;;;;;7.70;2.90;;;23.60;99.90;;;;;;5096167;28;20163;-41
2022/06/21 11:14:50;;;;;;;7.83;3.07;;;23.60;99.90;;;;;;5096269;28;20216;-42
2022/06/21 11:17:31;;;;;;;5.17;2.70;;;23.70;99.90;;;;;;5096073;28;20178;-42
2022/06/21 11:20:11;;;;;;;4.53;2.83;;;23.80;99.90;;;;;;5096030;28;20198;-43
2022/06/21 11:22:57;;;;;;;5.00;2.53;;;23.90;99.90;;;;;;5095839;28;20166;-43
2022/06/21 11:25:22;;;;;;;7.53;3.50;;;24.00;99.90;;;;;;5095839;28;20159;-42
2022/06/21 11:28:07;;;;;;;4.00;2.20;;;24.00;99.90;;;;;;5095608;28;20178;-42
2022/06/21 11:30:48;;;;;;;4.20;2.20;;;23.90;99.90;;;;;;5078895;28;20170;-43
2022/06/21 11:33:14;;;;;;;2.53;1.83;;;24.00;99.90;;;;;;5098931;28;20174;-42
2022/06/21 11:35:55;;;;;;;3.83;2.20;;;24.20;99.40;;;;;;5103418;28;20167;-42
2022/06/21 11:38:35;;;;;;;4.87;2.60;;;24.40;98.00;;;;;;5102448;28;20286;-43
2022/06/21 11:41:07;;;;;;;5.27;2.63;;;24.30;98.90;;;;;;5095863;28;20174;-40
2022/06/21 11:44:00;;;;;;;5.97;2.80;;;24.20;99.90;;;;;;5095169;28;20190;-43
2022/06/21 11:46:36;;;;;;;4.90;2.70;;;24.20;99.60;;;;;;5095648;28;20265;-42
2022/06/21 11:49:25;;;;;;;6.63;3.10;;;24.00;99.90;;;;;;5095362;28;20222;-43
2022/06/21 11:52:14;;;;;;;11.63;3.53;;;24.00;99.00;;;;;;5095207;28;20163;-43
2022/06/21 11:54:46;;;;;;;8.30;2.93;;;23.90;98.90;;;;;;5095198;28;20191;-41
2022/06/21 11:57:38;;;;;;;3.83;2.60;;;23.90;99.90;;;;;;5076800;28;20654;-42
2022/06/21 12:00:15;;;;;;;3.87;2.53;;;24.10;99.90;;;;;;5094859;28;20264;-43
2022/06/21 12:02:46;;;;;;;9.10;3.40;;;23.90;99.90;;;;;;5095035;28;20174;-42
2022/06/21 12:05:51;;;;;;;7.00;2.80;;;23.80;98.90;;;;;;5094773;28;20228;-43
2022/06/21 12:08:27;;;;;;;3.47;2.17;;;23.60;98.30;;;;;;5076789;28;20566;-42
2022/06/21 12:10:58;;;;;;;6.30;2.30;;;23.30;98.60;;;;;;5094937;28;20167;-44
2022/06/21 12:13:30;;;;;;;5.17;1.80;;;23.40;99.90;;;;;;5094648;28;20175;-42
2022/06/21 12:16:28;;;;;;;4.37;2.33;;;23.80;99.90;;;;;;5095044;28;20175;-43
2022/06/21 12:19:01;;;;;;;6.27;2.07;;;24.30;98.50;;;;;;5094448;28;20199;-44
2022/06/21 12:21:30;;;;;;;4.50;2.27;;;24.50;99.00;;;;;;5094844;28;20254;-43
2022/06/21 12:24:04;;;;;;;4.23;2.47;;;24.60;97.80;;;;;;5094584;28;20289;-42
2022/06/21 12:26:32;;;;;;;10.57;2.17;;;24.40;98.70;;;;;;5094811;28;20160;-46
2022/06/21 12:29:00;;;;;;;5.03;2.10;;;24.40;98.70;;;;;;5094795;28;20230;-41
2022/06/21 12:31:27;;;;;;;4.80;2.17;;;24.60;99.80;;;;;;5094491;28;20220;-42
2022/06/21 12:34:03;;;;;;;4.10;2.37;;;24.60;96.60;;;;;;5094461;28;20210;-42
2022/06/21 12:36:36;;;;;;;4.57;1.93;;;24.40;96.90;;;;;;5094267;28;20187;-43
2022/06/21 12:39:16;;;;;;;5.30;1.90;;;24.10;96.30;;;;;;5094292;28;20567;-43
2022/06/21 12:41:55;;;;;;;5.83;2.23;;;23.90;96.70;;;;;;5094430;28;20463;-41
2022/06/21 12:44:33;;;;;;;3.90;1.73;;;24.00;97.30;;;;;;5094043;28;20194;-41
2022/06/21 12:47:22;;;;;;;6.40;2.07;;;24.10;98.00;;;;;;5094556;28;20155;-43
2022/06/21 12:50:21;;;;;;;3.47;2.20;;;24.10;97.00;;;;;;5044899;28;20209;-45
2022/06/21 12:53:01;;;;;;;9.73;2.60;;;24.30;99.20;;;;;;5093913;28;20171;-41
2022/06/21 12:55:33;;;;;;;4.23;2.27;;;24.60;97.60;;;;;;5093533;28;20173;-40
2022/06/21 12:58:17;;;;;;;9.00;2.60;;;24.40;96.60;;;;;;5093904;28;20167;-43
2022/06/21 13:00:46;;;;;;;4.93;1.90;;;24.00;96.30;;;;;;5093696;28;20171;-41
2022/06/21 13:03:39;;;;;;;5.47;2.00;;;23.90;97.50;;;;;;5093887;28;20202;-43
2022/06/21 13:06:17;;;;;;;2.53;1.77;;;23.90;97.90;;;;;;5093888;28;20220;-42
2022/06/21 13:08:51;;;;;;;6.83;2.40;;;24.00;97.50;;;;;;5093832;28;20190;-41
2022/06/21 13:11:52;;;;;;;2.17;1.90;;;23.90;97.30;;;;;;5075522;28;20177;-44
2022/06/21 13:14:20;;;;;;;2.97;2.63;;;23.90;97.90;;;;;;5093818;28;20170;-41
2022/06/21 13:17:00;;;;;;;6.87;2.40;;;23.90;98.00;;;;;;5093458;28;20175;-42
2022/06/21 13:20:11;;;;;;;5.60;2.37;;;23.80;98.20;;;;;;5093573;28;20202;-42
2022/06/21 13:23:06;;;;;;;4.20;2.67;;;23.80;97.90;;;;;;5093629;28;20171;-45
2022/06/21 13:25:35;;;;;;;5.70;2.50;;;23.80;98.50;;;;;;5094022;28;20167;-44
2022/06/21 13:28:21;;;;;;;5.40;2.40;;;23.90;98.30;;;;;;5093322;28;20643;-42
2022/06/21 13:30:55;;;;;;;3.80;2.40;;;23.90;98.40;;;;;;5075259;28;20170;-43
2022/06/21 13:33:32;;;;;;;3.20;2.40;;;23.90;97.90;;;;;;5093587;28;20190;-42
2022/06/21 13:36:00;;;;;;;3.93;2.20;;;23.80;96.80;;;;;;5093617;28;20205;-42
2022/06/21 13:38:43;;;;;;;4.47;2.40;;;23.70;98.30;;;;;;5093630;28;20206;-42
2022/06/21 13:44:24;;;;;;;5.67;2.07;;;23.70;97.10;;;;;;5093365;28;20209;-42
2022/06/21 13:47:00;;;;;;;3.07;2.20;;;23.70;98.50;;;;;;5075976;28;20198;-43
2022/06/21 13:49:33;;;;;;;5.30;2.20;;;23.80;98.70;;;;;;5093145;28;20225;-44
2022/06/21 13:52:35;;;;;;;2.30;1.73;;;23.80;98.90;;;;;;5075018;28;20270;-41
2022/06/21 13:55:19;;;;;;;7.33;2.60;;;24.00;98.30;;;;;;5077106;28;20199;-41